createdAt,value
2023-05-19T00:03:40.782Z,11.83
2023-05-19T00:09:03.261Z,11.68
2023-05-19T00:14:24.057Z,11.56
2023-05-19T00:19:45.166Z,11.47
2023-05-19T00:25:06.398Z,11.45
2023-05-19T00:30:27.009Z,11.40
2023-05-19T00:35:47.503Z,11.30
2023-05-19T00:41:08.196Z,11.26
2023-05-19T00:46:30.728Z,11.26
2023-05-19T00:51:51.351Z,11.25
2023-05-19T00:57:13.439Z,11.20
2023-05-19T01:02:34.727Z,11.16
2023-05-19T01:07:56.532Z,11.09
2023-05-19T01:13:17.237Z,11.00
2023-05-19T01:18:47.768Z,10.90
2023-05-19T01:24:23.580Z,10.87
2023-05-19T01:30:17.897Z,10.77
2023-05-19T01:35:39.159Z,10.71
2023-05-19T01:41:01.412Z,10.68
2023-05-19T01:46:22.383Z,10.64
2023-05-19T01:51:43.052Z,10.62
2023-05-19T01:57:29.201Z,10.63
2023-05-19T02:03:19.041Z,10.64
2023-05-19T02:08:59.658Z,10.59
2023-05-19T02:14:34.043Z,10.54
2023-05-19T02:19:54.811Z,10.38
2023-05-19T02:25:15.367Z,10.37
2023-05-19T02:30:35.890Z,10.33
2023-05-19T02:35:57.441Z,10.31
2023-05-19T02:41:18.263Z,10.23
2023-05-19T02:46:38.831Z,10.18
2023-05-19T02:51:59.485Z,10.01
2023-05-19T02:57:20.008Z,9.85
2023-05-19T03:02:41.426Z,9.73
2023-05-19T03:08:03.026Z,9.61
2023-05-19T03:13:24.041Z,9.51
2023-05-19T03:18:45.983Z,9.45
2023-05-19T03:24:07.138Z,9.36
2023-05-19T03:29:28.227Z,9.33
2023-05-19T03:34:48.800Z,9.26
2023-05-19T03:40:10.615Z,9.22
2023-05-19T03:45:34.090Z,9.25
2023-05-19T03:51:05.081Z,9.31
2023-05-19T03:56:27.773Z,9.34
2023-05-19T04:01:48.772Z,9.50
2023-05-19T04:07:09.657Z,9.66
2023-05-19T04:12:30.303Z,9.90
2023-05-19T04:17:50.891Z,10.02
2023-05-19T04:23:12.477Z,10.05
2023-05-19T04:28:36.291Z,10.11
2023-05-19T04:33:57.468Z,10.07
2023-05-19T04:39:18.329Z,10.20
2023-05-19T04:44:40.578Z,10.26
2023-05-19T04:50:01.799Z,10.58
2023-05-19T04:55:23.050Z,10.94
2023-05-19T05:00:44.116Z,11.28
2023-05-19T05:06:06.566Z,11.74
2023-05-19T05:11:27.816Z,12.09
2023-05-19T05:16:50.053Z,12.41
2023-05-19T05:22:16.068Z,12.77
2023-05-19T05:27:36.777Z,13.20
2023-05-19T05:32:59.621Z,13.61
2023-05-19T05:38:27.380Z,14.00
2023-05-19T05:43:48.462Z,14.38
2023-05-19T05:49:09.199Z,14.81
2023-05-19T05:54:29.949Z,14.82
2023-05-19T05:59:51.415Z,15.58
2023-05-19T06:05:12.758Z,16.33
2023-05-19T06:10:36.853Z,17.07
2023-05-19T06:16:02.206Z,17.25
2023-05-19T06:21:32.032Z,17.27
2023-05-19T06:26:52.889Z,17.78
2023-05-19T06:32:14.110Z,17.96
2023-05-19T06:37:35.284Z,18.30
2023-05-19T06:42:57.390Z,18.51
2023-05-19T06:48:27.970Z,18.39
2023-05-19T06:53:48.983Z,18.16
2023-05-19T06:59:09.637Z,18.27
2023-05-19T07:04:31.731Z,19.04
2023-05-19T07:09:52.474Z,18.54
2023-05-19T07:15:12.960Z,18.80
2023-05-19T07:20:34.370Z,18.82
2023-05-19T07:25:58.537Z,19.65
2023-05-19T07:31:19.458Z,19.95
2023-05-19T07:36:40.159Z,20.53
2023-05-19T07:42:00.846Z,20.91
2023-05-19T07:47:21.719Z,21.55
2023-05-19T07:52:42.311Z,21.33
2023-05-19T07:58:02.795Z,21.46
2023-05-19T08:03:23.802Z,21.78
2023-05-19T08:08:44.493Z,22.14
2023-05-19T08:14:05.256Z,22.26
2023-05-19T08:19:26.935Z,22.41
2023-05-19T08:24:49.743Z,23.37
2023-05-19T08:30:10.681Z,24.93
2023-05-19T08:35:31.700Z,24.21
2023-05-19T08:40:52.296Z,23.70
2023-05-19T08:46:13.919Z,23.38
2023-05-19T08:51:41.568Z,23.13
2023-05-19T08:57:02.621Z,22.99
2023-05-19T09:02:23.787Z,23.27
2023-05-19T09:07:45.029Z,22.51
2023-05-19T09:13:06.447Z,22.05
2023-05-19T09:18:27.258Z,22.74
2023-05-19T09:23:48.787Z,22.11
2023-05-19T09:29:16.451Z,22.59
2023-05-19T09:34:41.692Z,22.88
2023-05-19T09:40:02.561Z,23.42
2023-05-19T09:45:23.214Z,24.32
2023-05-19T09:50:45.652Z,24.81
2023-05-19T09:56:06.408Z,25.34
2023-05-19T10:01:28.208Z,25.93
2023-05-19T10:06:53.619Z,26.34
2023-05-19T10:12:14.594Z,26.96
2023-05-19T10:17:36.171Z,26.64
2023-05-19T10:22:57.356Z,27.30
2023-05-19T10:28:20.582Z,27.19
2023-05-19T10:33:54.473Z,26.27
2023-05-19T10:39:21.733Z,25.55
2023-05-19T10:44:48.798Z,26.43
2023-05-19T10:50:10.176Z,26.72
2023-05-19T10:55:53.600Z,26.84
2023-05-19T11:01:22.196Z,26.08
2023-05-19T11:06:43.644Z,25.19
2023-05-19T11:12:04.940Z,24.67
2023-05-19T11:17:25.928Z,24.74
2023-05-19T11:23:01.251Z,24.00
2023-05-19T11:28:26.333Z,23.13
2023-05-19T11:33:47.200Z,22.69
2023-05-19T11:39:08.451Z,23.41
2023-05-19T11:44:28.912Z,23.28
2023-05-19T11:49:52.018Z,22.65
2023-05-19T11:55:17.031Z,22.28
2023-05-19T12:00:41.672Z,21.64
2023-05-19T12:06:02.491Z,22.31
2023-05-19T12:11:23.891Z,22.09
2023-05-19T12:16:45.013Z,22.42
2023-05-19T12:22:06.709Z,22.00
2023-05-19T12:27:27.600Z,21.40
2023-05-19T12:32:49.166Z,20.20
2023-05-19T12:38:09.867Z,19.26
2023-05-19T12:43:30.550Z,18.75
2023-05-19T12:48:51.723Z,18.56
2023-05-19T12:54:12.256Z,19.11
2023-05-19T12:59:38.826Z,19.67
2023-05-19T13:05:00.374Z,19.86
2023-05-19T13:10:21.261Z,19.91
2023-05-19T13:15:48.975Z,20.16
2023-05-19T13:21:10.266Z,20.14
2023-05-19T13:26:31.190Z,19.82
2023-05-19T13:31:52.094Z,19.49
2023-05-19T13:37:13.074Z,19.37
2023-05-19T13:42:35.114Z,19.11
2023-05-19T13:47:55.980Z,19.13
2023-05-19T13:53:16.875Z,18.82
2023-05-19T13:58:37.576Z,18.38
2023-05-19T14:03:58.574Z,18.13
2023-05-19T14:09:20.221Z,18.03
2023-05-19T14:14:41.002Z,17.76
2023-05-19T14:20:01.753Z,18.00
2023-05-19T14:25:22.615Z,18.12
2023-05-19T14:30:43.350Z,17.76
2023-05-19T14:36:05.401Z,17.54
2023-05-19T14:41:26.255Z,17.53
2023-05-19T14:46:46.855Z,17.32
2023-05-19T14:52:07.454Z,17.24
2023-05-19T14:57:28.088Z,17.19
2023-05-19T15:02:49.664Z,17.27
2023-05-19T15:08:10.842Z,17.24
2023-05-19T15:13:31.782Z,17.17
2023-05-19T15:18:54.556Z,17.08
2023-05-19T15:24:15.534Z,17.32
2023-05-19T15:29:36.584Z,17.53
2023-05-19T15:34:57.680Z,17.77
2023-05-19T15:40:18.687Z,17.79
2023-05-19T15:45:39.465Z,17.56
2023-05-19T15:51:00.632Z,17.46
2023-05-19T15:56:21.699Z,17.51
2023-05-19T16:01:42.385Z,17.65
2023-05-19T16:07:02.960Z,17.62
2023-05-19T16:12:27.453Z,17.52
2023-05-19T16:17:48.290Z,17.36
2023-05-19T16:23:08.774Z,17.35
2023-05-19T16:28:29.413Z,17.27
2023-05-19T16:33:49.956Z,17.17
2023-05-19T16:39:10.760Z,16.83
2023-05-19T16:44:31.753Z,16.71
2023-05-19T16:49:52.266Z,16.69
2023-05-19T16:55:17.280Z,16.66
2023-05-19T17:00:38.196Z,16.42
2023-05-19T17:05:58.757Z,16.23
2023-05-19T17:11:19.375Z,16.13
2023-05-19T17:16:40.090Z,16.07
2023-05-19T17:22:00.867Z,15.88
2023-05-19T17:27:21.482Z,15.72
2023-05-19T17:32:42.215Z,15.64
2023-05-19T17:38:02.519Z,15.49
2023-05-19T17:43:23.461Z,15.39
2023-05-19T17:48:44.177Z,15.26
2023-05-19T17:54:05.467Z,15.20
2023-05-19T17:59:26.287Z,15.18
2023-05-19T18:04:48.514Z,15.15
2023-05-19T18:10:09.896Z,15.07
2023-05-19T18:15:30.979Z,14.96
2023-05-19T18:20:51.996Z,14.91
2023-05-19T18:26:16.198Z,14.83
2023-05-19T18:31:37.143Z,14.73
2023-05-19T18:36:57.666Z,14.57
2023-05-19T18:42:25.558Z,14.59
2023-05-19T18:47:46.444Z,14.57
2023-05-19T18:53:07.235Z,14.51
2023-05-19T18:58:27.741Z,14.54
2023-05-19T19:03:49.415Z,14.50
2023-05-19T19:09:10.299Z,14.42
2023-05-19T19:14:31.059Z,14.27
2023-05-19T19:19:51.694Z,14.24
2023-05-19T19:25:12.263Z,14.24
2023-05-19T19:30:33.164Z,14.01
2023-05-19T19:35:54.227Z,13.91
2023-05-19T19:41:14.720Z,13.81
2023-05-19T19:46:35.419Z,13.74
2023-05-19T19:51:55.900Z,13.67
2023-05-19T19:57:19.336Z,13.60
2023-05-19T20:02:55.343Z,13.57
2023-05-19T20:08:21.877Z,13.46
2023-05-19T20:13:42.950Z,13.43
2023-05-19T20:19:03.476Z,13.30
2023-05-19T20:24:24.069Z,13.10
2023-05-19T20:29:45.500Z,12.87
2023-05-19T20:35:06.882Z,12.75
2023-05-19T20:40:28.082Z,12.61
2023-05-19T20:45:48.959Z,12.45
2023-05-19T20:51:09.802Z,12.31
2023-05-19T20:56:30.383Z,12.19
2023-05-19T21:01:51.277Z,12.10
2023-05-19T21:07:12.124Z,12.00
2023-05-19T21:12:34.250Z,11.93
2023-05-19T21:17:55.509Z,11.79
2023-05-19T21:23:16.034Z,11.72
2023-05-19T21:28:36.737Z,11.64
2023-05-19T21:33:57.444Z,11.52
2023-05-19T21:39:18.450Z,11.44
2023-05-19T21:44:39.313Z,11.38
2023-05-19T21:49:59.883Z,11.27
2023-05-19T21:55:22.025Z,11.12
2023-05-19T22:00:43.405Z,10.98
2023-05-19T22:06:06.396Z,10.87
2023-05-19T22:11:27.034Z,10.79
2023-05-19T22:16:47.774Z,10.70
2023-05-19T22:22:14.218Z,10.75
2023-05-19T22:27:35.373Z,10.67
2023-05-19T22:32:56.074Z,10.64
2023-05-19T22:38:16.659Z,10.62
2023-05-19T22:43:37.433Z,10.59
2023-05-19T22:48:58.021Z,10.57
2023-05-19T22:54:18.925Z,10.60
2023-05-19T22:59:40.004Z,10.65
2023-05-19T23:05:00.773Z,10.70
2023-05-19T23:10:21.308Z,10.73
2023-05-19T23:15:41.919Z,10.69
2023-05-19T23:21:02.443Z,10.63
2023-05-19T23:26:23.370Z,10.50
2023-05-19T23:31:44.250Z,10.46
2023-05-19T23:37:05.561Z,10.40
2023-05-19T23:42:26.322Z,10.44
2023-05-19T23:47:47.110Z,10.47
2023-05-19T23:53:08.280Z,10.51
2023-05-19T23:58:28.748Z,10.49
